Thunder radar more information blitzortung!


Radar de pluja more information rain snow radar


Visita la nostra xarxa de llocs de meteo:

Template documentation
and downloads

And another site



No particular awareness of the weather is required.    There are no Weather-warnings

Pagina Historial Weather Underground text

Diari Resum January 4, 2018 Unitats:  Mètric    Imperial   Tant
« Previous Dia
SegĂźent Dia »
Diari Setmana Mensual Anual Personalitzada
  Maxima: Minima: Media:
Temperatura: -17.8 °C -11.9 °C -8.2 °C
Punt de rosada: -17.8 °C -16.6 °C -13.9 °C
Humitat: Humidity % 43 % 51 %
Wind Speed: 0 km/h 0 km/h 16.4 km/h
RĂ fegues de vent: 0 km/h - -
Vent:- - WSW
Pression baro: 0 hPa 34293.4 hPa -
Precipitacions: 0 mm    
Historical Graphs
 
 
Dades de taula per January 4, 2018
Temps Temperatura Punt de rosada Pression baro Vent Wind Speed RĂ fegues de vent Humitat Rainfall Rate (Hourly)
-17.8 °C -17.8 °C 0 hPa Calm     Humidity % 0 mm
00:00 -9.1 °C -12.7 °C 34496.6 hPa West 18.2 km/h 20.8 km/h 65 % 0 mm
00:01 -9.1 °C -12.9 °C 34601.5 hPa WSW 17.9 km/h 17.9 km/h 63 % 0 mm
00:04 -9.1 °C -12.9 °C 34601.5 hPa WSW 14.5 km/h 14.5 km/h 63 % 0 mm
00:10 -9.1 °C -12.7 °C 34533.8 hPa West 15.6 km/h 20.8 km/h 65 % 0 mm
00:20 -9.1 °C -12.7 °C 34533.8 hPa West 7.7 km/h 15.6 km/h 65 % 0 mm
00:30 -9.1 °C -12.7 °C 34533.8 hPa West 7.7 km/h 15.6 km/h 65 % 0 mm
00:40 -9.2 °C -12.8 °C 34533.8 hPa West 12.9 km/h 15.6 km/h 65 % 0 mm
01:00 -9.3 °C -12.9 °C 34533.8 hPa West 7.7 km/h 10.3 km/h 65 % 0 mm
01:20 -9.3 °C -12.9 °C 34496.6 hPa WNW 15.6 km/h 18.2 km/h 65 % 0 mm
01:30 -9.3 °C -12.8 °C 34496.6 hPa WSW 5.1 km/h 15.6 km/h 66 % 0 mm
01:40 -9.3 °C -12.8 °C 34533.8 hPa West 7.7 km/h 15.6 km/h 66 % 0 mm
01:50 -9.4 °C -12.9 °C 34496.6 hPa WNW 5.1 km/h 10.3 km/h 66 % 0 mm
02:00 -9.4 °C -13.1 °C 34496.6 hPa WNW 5.1 km/h 12.9 km/h 65 % 0 mm
02:10 -9.6 °C -13.1 °C 34533.8 hPa West 2.6 km/h 7.7 km/h 66 % 0 mm
02:20 -9.6 °C -13.1 °C 34533.8 hPa WNW 2.6 km/h 10.3 km/h 66 % 0 mm
02:30 -9.7 °C -13.2 °C 34533.8 hPa WNW 2.6 km/h 7.7 km/h 66 % 0 mm
02:40 -9.7 °C -13.2 °C 34533.8 hPa West 5.1 km/h 10.3 km/h 66 % 0 mm
02:50 -9.7 °C -13.2 °C 34533.8 hPa West 7.7 km/h 7.7 km/h 66 % 0 mm
03:10 -9.4 °C -12.9 °C 34567.7 hPa WSW 5.1 km/h 7.7 km/h 66 % 0 mm
03:30 -9.1 °C -12.7 °C 34567.7 hPa West 5.1 km/h 10.3 km/h 65 % 0 mm
03:50 -8.9 °C -12.7 °C 34567.7 hPa SW 12.9 km/h 15.6 km/h 64 % 0 mm
04:00 -8.8 °C -12.6 °C 34567.7 hPa SW 5.1 km/h 15.6 km/h 64 % 0 mm
10:06 -8.5 °C -12.4 °C 34567.7 hPa ENE 20.9 km/h 20.9 km/h 63 % 0 mm
10:07 -8.5 °C -12.4 °C 34567.7 hPa NW 20.9 km/h 20.9 km/h 63 % 0 mm
10:08 -8.5 °C -12.4 °C 34567.7 hPa NNW 20.9 km/h 20.9 km/h 63 % 0 mm
10:09 -8.5 °C -12.4 °C 34567.7 hPa NE 9 km/h 9 km/h 63 % 0 mm
10:14 -8.4 °C -12.4 °C 34567.7 hPa NNE 6.8 km/h 6.8 km/h 63 % 0 mm
10:15 -8.6 °C -12.6 °C 34567.7 hPa NE 6 km/h 6 km/h 62 % 0 mm
10:20 -8.7 °C -12.8 °C 34567.7 hPa NNE 11.9 km/h 11.9 km/h 62 % 0 mm
10:23 -8.7 °C -12.8 °C 34567.7 hPa NE 9 km/h 9 km/h 62 % 0 mm
10:28 -8.6 °C -12.6 °C 34567.7 hPa NE 9 km/h 9 km/h 62 % 0 mm
10:30 -8.5 °C -12.6 °C 34567.7 hPa West 16.6 km/h 16.6 km/h 62 % 0 mm
10:35 -8.3 °C -12.5 °C 34567.7 hPa SSW 15 km/h 15 km/h 61 % 0 mm
10:37 -8.2 °C -12.4 °C 34567.7 hPa WNW 11.9 km/h 11.9 km/h 61 % 0 mm
10:42 -8.1 °C -12.4 °C 34567.7 hPa WSW 20.9 km/h 20.9 km/h 60 % 0 mm
10:47 -8 °C -12.4 °C 34567.7 hPa WSW 11.9 km/h 11.9 km/h 60 % 0 mm
10:50 -7.9 °C -12.4 °C 34567.7 hPa WSW 20.9 km/h 20.9 km/h 59 % 0 mm
10:51 -7.9 °C -12.4 °C 34567.7 hPa NW 23.8 km/h 23.8 km/h 59 % 0 mm
10:55 -7.9 °C -12.6 °C 34601.5 hPa WSW 32.8 km/h 32.8 km/h 58 % 0 mm
10:57 -7.9 °C -12.6 °C 34601.5 hPa WNW 20.9 km/h 20.9 km/h 58 % 0 mm
11:02 -7.8 °C -12.4 °C 34601.5 hPa West 35.7 km/h 35.7 km/h 58 % 0 mm
11:05 -7.8 °C -12.6 °C 34601.5 hPa West 15.6 km/h 36.2 km/h 57 % 0 mm
11:10 -7.7 °C -12.7 °C 34601.5 hPa WSW 35.7 km/h 35.7 km/h 56 % 0 mm
11:11 -7.7 °C -12.7 °C 34601.5 hPa WSW 35.7 km/h 35.7 km/h 56 % 0 mm
11:16 -7.7 °C -12.8 °C 34601.5 hPa WSW 15 km/h 15 km/h 55 % 0 mm
11:20 -7.7 °C -12.8 °C 34601.5 hPa WSW 20.9 km/h 20.9 km/h 55 % 0 mm
11:25 -7.6 °C -12.9 °C 34533.8 hPa West 20.9 km/h 20.9 km/h 54 % 0 mm
11:30 -7.5 °C -12.8 °C 34533.8 hPa West 11.9 km/h 11.9 km/h 54 % 0 mm
11:35 -7.4 °C -12.7 °C 34533.8 hPa NNE 9.8 km/h 9.8 km/h 54 % 0 mm
11:40 -7.3 °C -12.6 °C 34533.8 hPa ENE 12.7 km/h 12.7 km/h 54 % 0 mm
11:41 -7.3 °C -12.6 °C 34533.8 hPa WSW 11.9 km/h 11.9 km/h 54 % 0 mm
11:44 -7.2 °C -12.7 °C 34533.8 hPa SSW 9 km/h 9 km/h 53 % 0 mm
11:46 -7.2 °C -12.7 °C 34533.8 hPa NW 26.4 km/h 26.4 km/h 53 % 0 mm
11:51 -7.2 °C -12.7 °C 34533.8 hPa North 15 km/h 15 km/h 53 % 0 mm
11:54 -7.2 °C -12.8 °C 34533.8 hPa SW 26.9 km/h 26.9 km/h 52 % 0 mm
11:56 -7.2 °C -12.8 °C 34533.8 hPa WNW 19.2 km/h 19.2 km/h 52 % 0 mm
12:01 -7.2 °C -13 °C 34533.8 hPa WSW 26.9 km/h 26.9 km/h 51 % 0 mm
12:06 -7.2 °C -12.9 °C 34533.8 hPa WNW 26.9 km/h 26.9 km/h 51 % 0 mm
12:07 -7.2 °C -12.9 °C 34533.8 hPa SW 26.9 km/h 26.9 km/h 51 % 0 mm
12:08 -7.2 °C -12.9 °C 34533.8 hPa SW 23.8 km/h 23.8 km/h 51 % 0 mm
12:13 -7.2 °C -13 °C 34533.8 hPa West 38.8 km/h 38.8 km/h 51 % 0 mm
12:15 -7.3 °C -13 °C 34533.8 hPa West 44.7 km/h 44.7 km/h 51 % 0 mm
12:16 -7.3 °C -13 °C 34533.8 hPa West 56.6 km/h 56.6 km/h 51 % 0 mm
12:20 -7.2 °C -13 °C 34533.8 hPa West 26.9 km/h 26.9 km/h 51 % 0 mm
12:25 -7.2 °C -13.1 °C 34496.6 hPa WSW 39.4 km/h 39.4 km/h 50 % 0 mm
12:26 -7.2 °C -13.1 °C 34496.6 hPa West 23.8 km/h 25.9 km/h 50 % 0 mm
12:28 -7.2 °C -13.1 °C 34496.6 hPa West 19.2 km/h 19.2 km/h 50 % 0 mm
12:31 -7.1 °C -13.1 °C 34496.6 hPa WSW 38.8 km/h 38.8 km/h 50 % 0 mm
12:36 -7.1 °C -13.1 °C 34496.6 hPa WSW 32.8 km/h 32.8 km/h 50 % 0 mm
12:41 -7.1 °C -13.1 °C 34496.6 hPa WNW 29.8 km/h 29.8 km/h 50 % 0 mm
12:42 -7.1 °C -13.1 °C 34496.6 hPa WSW 15 km/h 15 km/h 50 % 0 mm
12:43 -7 °C -12.9 °C 34496.6 hPa SW 20.9 km/h 20.9 km/h 50 % 0 mm
12:47 -6.9 °C -12.9 °C 34496.6 hPa WSW 31.9 km/h 31.9 km/h 50 % 0 mm
12:50 -6.9 °C -12.9 °C 34496.6 hPa West 32.8 km/h 32.8 km/h 50 % 0 mm
12:53 -6.9 °C -12.8 °C 34462.7 hPa WSW 26.9 km/h 26.9 km/h 50 % 0 mm
12:58 -6.7 °C -12.7 °C 34462.7 hPa West 20.3 km/h 20.3 km/h 50 % 0 mm
13:03 -6.7 °C -12.8 °C 34462.7 hPa WSW 32.8 km/h 32.8 km/h 49 % 0 mm
13:08 -6.8 °C -12.9 °C 34462.7 hPa West 47.6 km/h 47.6 km/h 49 % 0 mm
13:13 -6.7 °C -12.8 °C 34462.7 hPa WSW 32.8 km/h 32.8 km/h 49 % 0 mm
13:17 -6.8 °C -12.9 °C 34462.7 hPa West 50.7 km/h 50.7 km/h 49 % 0 mm
13:22 -6.7 °C -12.8 °C 34462.7 hPa West 29.8 km/h 29.8 km/h 49 % 0 mm
13:23 -6.7 °C -12.8 °C 34462.7 hPa West 29.8 km/h 29.8 km/h 49 % 0 mm
13:28 -6.7 °C -12.8 °C 34462.7 hPa West 26.9 km/h 26.9 km/h 49 % 0 mm
13:33 -6.7 °C -12.8 °C 34462.7 hPa SW 26.9 km/h 26.9 km/h 49 % 0 mm
13:36 -6.7 °C -12.8 °C 34462.7 hPa WSW 53.6 km/h 53.6 km/h 49 % 0 mm
13:37 -6.8 °C -12.9 °C 34462.7 hPa WSW 53.6 km/h 53.6 km/h 49 % 0 mm
13:38 -6.7 °C -12.8 °C 34462.7 hPa West 23.8 km/h 23.8 km/h 49 % 0 mm
13:43 -6.7 °C -12.8 °C 34462.7 hPa WSW 29.8 km/h 29.8 km/h 49 % 0 mm
13:44 -6.7 °C -12.8 °C 34462.7 hPa WSW 26.9 km/h 26.9 km/h 49 % 0 mm
13:48 -6.7 °C -12.8 °C 34462.7 hPa WSW 35.7 km/h 35.7 km/h 49 % 0 mm
13:49 -6.8 °C -12.9 °C 34462.7 hPa West 50.7 km/h 50.7 km/h 49 % 0 mm
13:50 -6.8 °C -12.9 °C 34462.7 hPa WSW 50.7 km/h 50.7 km/h 49 % 0 mm
13:53 -6.8 °C -12.9 °C 34462.7 hPa WSW 26.9 km/h 26.9 km/h 49 % 0 mm
13:54 -6.8 °C -12.9 °C 34462.7 hPa West 23.8 km/h 23.8 km/h 49 % 0 mm
13:55 -6.8 °C -12.9 °C 34462.7 hPa WSW 29.8 km/h 29.8 km/h 49 % 0 mm
14:00 -6.7 °C -12.8 °C 34462.7 hPa SW 26.9 km/h 26.9 km/h 49 % 0 mm
14:01 -6.7 °C -12.8 °C 34462.7 hPa West 33.6 km/h 33.6 km/h 49 % 0 mm
14:06 -6.7 °C -12.8 °C 34462.7 hPa West 19.2 km/h 19.2 km/h 49 % 0 mm
14:07 -6.7 °C -12.8 °C 34462.7 hPa West 19.2 km/h 19.2 km/h 49 % 0 mm
14:12 -6.7 °C -13 °C 34462.7 hPa WSW 26.9 km/h 26.9 km/h 48 % 0 mm
14:14 -6.7 °C -13 °C 34462.7 hPa West 17.9 km/h 17.9 km/h 48 % 0 mm
14:15 -6.7 °C -13 °C 34462.7 hPa WSW 29.8 km/h 29.8 km/h 48 % 0 mm
14:20 -6.7 °C -12.9 °C 34462.7 hPa West 23.3 km/h 33.6 km/h 48 % 0 mm
14:24 -6.7 °C -13.2 °C 34462.7 hPa WNW 20.9 km/h 20.9 km/h 47 % 0 mm
14:26 -6.6 °C -12.9 °C 34462.7 hPa WNW 23.8 km/h 23.8 km/h 48 % 0 mm
14:27 -6.6 °C -12.9 °C 34462.7 hPa WSW 23.8 km/h 23.8 km/h 48 % 0 mm
14:32 -6.5 °C -13 °C 34462.7 hPa WSW 20.9 km/h 20.9 km/h 47 % 0 mm
14:35 -6.4 °C -12.9 °C 34462.7 hPa SW 27.2 km/h 27.2 km/h 47 % 0 mm
14:40 -6.4 °C -12.9 °C 34462.7 hPa West 29 km/h 29 km/h 47 % 0 mm
14:41 -6.4 °C -12.9 °C 34462.7 hPa West 29.8 km/h 29.8 km/h 47 % 0 mm
14:42 -6.4 °C -12.9 °C 34462.7 hPa West 29.8 km/h 29.8 km/h 47 % 0 mm
14:46 -6.3 °C -12.8 °C 34462.7 hPa West 20.9 km/h 20.9 km/h 47 % 0 mm
14:47 -6.3 °C -12.8 °C 34462.7 hPa WNW 20.9 km/h 20.9 km/h 47 % 0 mm
14:52 -6.4 °C -13.1 °C 34462.7 hPa WNW 15 km/h 15 km/h 46 % 0 mm
14:57 -6.3 °C -12.9 °C 34462.7 hPa West 17.9 km/h 17.9 km/h 46 % 0 mm
15:00 -6.2 °C -12.9 °C 34462.7 hPa West 25.9 km/h 25.9 km/h 46 % 0 mm
15:01 -6.2 °C -12.9 °C 34462.7 hPa West 26.9 km/h 26.9 km/h 46 % 0 mm
15:07 -6.2 °C -13.1 °C 34462.7 hPa West 38.8 km/h 38.8 km/h 45 % 0 mm
15:12 -6.2 °C -13.1 °C 34462.7 hPa West 20.9 km/h 20.9 km/h 45 % 0 mm
15:13 -6.2 °C -13.3 °C 34462.7 hPa WSW 26.9 km/h 26.9 km/h 44 % 0 mm
15:15 -6.2 °C -13.3 °C 34462.7 hPa WNW 23.8 km/h 23.8 km/h 44 % 0 mm
15:16 -6.2 °C -13.2 °C 34462.7 hPa WSW 20.9 km/h 20.9 km/h 44 % 0 mm
15:21 -6.2 °C -13.3 °C 34462.7 hPa WSW 38.8 km/h 38.8 km/h 44 % 0 mm
15:22 -6.2 °C -13.3 °C 34462.7 hPa WSW 38.8 km/h 38.8 km/h 44 % 0 mm
15:25 -6.2 °C -13.3 °C 34462.7 hPa WNW 15 km/h 16.1 km/h 44 % 0 mm
15:28 -6.2 °C -13.3 °C 34462.7 hPa WSW 20.9 km/h 20.9 km/h 44 % 0 mm
15:35 -6.3 °C -13.3 °C 34462.7 hPa West 29.8 km/h 29.8 km/h 44 % 0 mm
15:38 -6.3 °C -13.6 °C 34462.7 hPa WNW 38.8 km/h 38.8 km/h 43 % 0 mm
15:43 -6.3 °C -13.4 °C 34462.7 hPa West 17.9 km/h 17.9 km/h 44 % 0 mm
15:45 -6.3 °C -13.4 °C 34462.7 hPa WNW 23.8 km/h 23.8 km/h 44 % 0 mm
15:49 -6.4 °C -13.4 °C 34462.7 hPa West 15.3 km/h 15.3 km/h 44 % 0 mm
15:50 -6.4 °C -13.4 °C 34462.7 hPa SW 15.3 km/h 15.3 km/h 44 % 0 mm
15:51 -6.3 °C -13.4 °C 34462.7 hPa NW 32.3 km/h 32.3 km/h 44 % 0 mm
15:56 -6.4 °C -13.4 °C 34462.7 hPa West 15 km/h 15.6 km/h 44 % 0 mm
16:05 -6.4 °C -13.7 °C 34462.7 hPa ENE 32.8 km/h 32.8 km/h 43 % 0 mm
16:07 -6.5 °C -13.7 °C 34462.7 hPa WSW 22.5 km/h 22.5 km/h 43 % 0 mm
16:12 -6.7 °C -13.7 °C 34462.7 hPa NW 17.9 km/h 17.9 km/h 44 % 0 mm
16:14 -6.7 °C -13.7 °C 34462.7 hPa West 9.3 km/h 9.3 km/h 44 % 0 mm
16:18 -6.7 °C -13.7 °C 34462.7 hPa West 15 km/h 15 km/h 44 % 0 mm
16:20 -6.8 °C -13.8 °C 34462.7 hPa West 15 km/h 15 km/h 44 % 0 mm
16:25 -6.8 °C -13.8 °C 34462.7 hPa WSW 16.6 km/h 16.6 km/h 44 % 0 mm
16:26 -6.8 °C -13.8 °C 34462.7 hPa WNW 15 km/h 15 km/h 44 % 0 mm
16:27 -6.8 °C -13.8 °C 34462.7 hPa WSW 20.9 km/h 20.9 km/h 44 % 0 mm
16:32 -6.7 °C -13.7 °C 34462.7 hPa West 17.9 km/h 17.9 km/h 44 % 0 mm
16:37 -6.7 °C -13.7 °C 34462.7 hPa WSW 19.2 km/h 19.2 km/h 44 % 0 mm
16:42 -6.7 °C -13.7 °C 34462.7 hPa SW 17.9 km/h 17.9 km/h 44 % 0 mm
16:47 -6.8 °C -13.8 °C 34462.7 hPa WNW 11.9 km/h 11.9 km/h 44 % 0 mm
16:49 -6.8 °C -13.8 °C 34462.7 hPa SSW 26.9 km/h 26.9 km/h 44 % 0 mm
16:52 -6.8 °C -13.8 °C 34462.7 hPa West 11.9 km/h 11.9 km/h 44 % 0 mm
16:53 -6.9 °C -13.9 °C 34462.7 hPa WSW 22.5 km/h 22.5 km/h 44 % 0 mm
16:54 -6.9 °C -13.9 °C 34462.7 hPa West 23.8 km/h 23.8 km/h 44 % 0 mm
16:59 -7.1 °C -14.1 °C 34462.7 hPa SW 19.6 km/h 19.6 km/h 44 % 0 mm
17:01 -7.1 °C -14.1 °C 34462.7 hPa West 20.9 km/h 20.9 km/h 44 % 0 mm
17:05 -7.2 °C -14.1 °C 34462.7 hPa WSW 9.8 km/h 9.8 km/h 44 % 0 mm
17:08 -7.2 °C -13.9 °C 34462.7 hPa SW 17.9 km/h 17.9 km/h 45 % 0 mm
17:13 -7.2 °C -14 °C 34462.7 hPa WSW 15.6 km/h 15.6 km/h 45 % 0 mm
17:18 -7.3 °C -13.9 °C 34462.7 hPa West 9 km/h 9 km/h 46 % 0 mm
17:22 -7.4 °C -14 °C 34462.7 hPa WSW 9 km/h 9 km/h 46 % 0 mm
17:23 -7.4 °C -14 °C 34462.7 hPa NW 6 km/h 6 km/h 46 % 0 mm
17:27 -7.4 °C -14.1 °C 34462.7 hPa West 27.7 km/h 27.7 km/h 46 % 0 mm
17:30 -7.6 °C -14.1 °C 34462.7 hPa WSW 17.9 km/h 17.9 km/h 46 % 0 mm
17:31 -7.6 °C -14.1 °C 34462.7 hPa WSW 17.9 km/h 17.9 km/h 46 % 0 mm
17:32 -7.6 °C -14.1 °C 34462.7 hPa WSW 12.7 km/h 12.7 km/h 46 % 0 mm
17:37 -7.6 °C -14.2 °C 34462.7 hPa WSW 6 km/h 6 km/h 46 % 0 mm
17:38 -7.7 °C -14.2 °C 34462.7 hPa West 6 km/h 6 km/h 46 % 0 mm
17:43 -7.7 °C -14.3 °C 34462.7 hPa NNW 6.8 km/h 6.8 km/h 46 % 0 mm
17:45 -7.8 °C -14.3 °C 34462.7 hPa West 6.8 km/h 6.8 km/h 46 % 0 mm
17:46 -7.8 °C -14.3 °C 34462.7 hPa WNW 11.9 km/h 11.9 km/h 46 % 0 mm
17:51 -7.8 °C -14.2 °C 34462.7 hPa NW 11.9 km/h 11.9 km/h 47 % 0 mm
17:53 -7.8 °C -14.2 °C 34462.7 hPa NW 15 km/h 15 km/h 47 % 0 mm
17:55 -7.8 °C -14.2 °C 34462.7 hPa West 6 km/h 6 km/h 47 % 0 mm
17:57 -7.9 °C -14.3 °C 34462.7 hPa WNW 15 km/h 15 km/h 47 % 0 mm
17:59 -7.9 °C -14.3 °C 34462.7 hPa NNW 9 km/h 9 km/h 47 % 0 mm
18:04 -7.9 °C -14.3 °C 34462.7 hPa WNW 6 km/h 6 km/h 47 % 0 mm
18:05 -7.9 °C -14.3 °C 34462.7 hPa WNW 11.9 km/h 11.9 km/h 47 % 0 mm
18:10 -8 °C -14.3 °C 34462.7 hPa WSW 15 km/h 15 km/h 47 % 0 mm
18:11 -8 °C -14.3 °C 34462.7 hPa WSW 15 km/h 15 km/h 47 % 0 mm
18:16 -8 °C -14.3 °C 34462.7 hPa NW 9 km/h 9 km/h 47 % 0 mm
18:18 -8.1 °C -14.4 °C 34462.7 hPa WSW 8 km/h 8 km/h 47 % 0 mm
18:20 -9.9 °C -15.5 °C 34462.7 hPa WSW 7.7 km/h 10.3 km/h 51 % 0 mm
18:21 -8 °C -14.3 °C 34462.7 hPa SW 9.8 km/h 12.7 km/h 47 % 0 mm
18:22 -8 °C -14.3 °C 34462.7 hPa WSW 26.9 km/h 26.9 km/h 47 % 0 mm
18:27 -8.1 °C -14.4 °C 34462.7 hPa WSW 6 km/h 6 km/h 47 % 0 mm
18:28 -8.1 °C -14.4 °C 34462.7 hPa NW 7.6 km/h 7.6 km/h 47 % 0 mm
18:32 -8.1 °C -14.5 °C 34462.7 hPa NW 3.1 km/h   47 % 0 mm
18:36 -8.2 °C -14.4 °C 34462.7 hPa NNW 11.9 km/h 11.9 km/h 48 % 0 mm
18:40 -10.3 °C -15.8 °C 34428.8 hPa WSW 5.1 km/h 7.7 km/h 51 % 0 mm
18:41 -8.2 °C -14.4 °C 34462.7 hPa SE 9 km/h 9 km/h 48 % 0 mm
18:46 -8.3 °C -14.5 °C 34462.7 hPa SW 9 km/h 9 km/h 48 % 0 mm
18:50 -8.3 °C -14.4 °C 34462.7 hPa ESE 20.9 km/h 20.9 km/h 48 % 0 mm
18:55 -8.3 °C -14.4 °C 34496.6 hPa ESE 9.8 km/h 9.8 km/h 48 % 0 mm
18:59 -8.3 °C -14.4 °C 34496.6 hPa ESE 15 km/h 15 km/h 48 % 0 mm
19:00 -10.4 °C -15.9 °C 34428.8 hPa West 7.7 km/h 10.3 km/h 51 % 0 mm
19:03 -8.4 °C -14.4 °C 34496.6 hPa SE 6 km/h 6 km/h 49 % 0 mm
19:08 -8.5 °C -14.5 °C 34462.7 hPa Calm     49 % 0 mm
19:10 -8.5 °C -14.3 °C 34462.7 hPa NNE 6 km/h 6.3 km/h 50 % 0 mm
19:16 -8.6 °C -14.4 °C 34462.7 hPa ESE 11.6 km/h 11.6 km/h 50 % 0 mm
19:20 -10.4 °C -15.9 °C 34361.1 hPa WSW 5.1 km/h 7.7 km/h 51 % 0 mm
19:21 -8.4 °C -14.3 °C 34496.6 hPa East 6 km/h 6 km/h 50 % 0 mm
19:23 -8.4 °C -14.3 °C 34496.6 hPa SSE 9 km/h 9 km/h 50 % 0 mm
19:28 -8.6 °C -14.4 °C 34496.6 hPa ESE 8 km/h 8 km/h 50 % 0 mm
19:30 -8.6 °C -14.4 °C 34496.6 hPa SSE 9 km/h 9 km/h 50 % 0 mm
19:35 -8.4 °C -14.3 °C 34496.6 hPa West 10.3 km/h 10.3 km/h 50 % 0 mm
19:38 -8.4 °C -14.3 °C 34496.6 hPa South 11.9 km/h 11.9 km/h 50 % 0 mm
19:43 -8.6 °C -14.4 °C 34496.6 hPa SE 11.9 km/h 11.9 km/h 50 % 0 mm
19:48 -8.6 °C -14.4 °C 34496.6 hPa SW 3.1 km/h 3.1 km/h 50 % 0 mm
19:50 -10.6 °C -15.9 °C 34395 hPa WSW 2.6 km/h 12.9 km/h 52 % 0 mm
19:53 -8.7 °C -14.6 °C 34496.6 hPa SW 6 km/h 6 km/h 50 % 0 mm
19:59 -8.7 °C -14.4 °C 34496.6 hPa SE 9 km/h 9 km/h 51 % 0 mm
20:00 -8.7 °C -14.4 °C 34496.6 hPa SW 6.3 km/h 6.3 km/h 51 % 0 mm
20:01 -8.7 °C -14.4 °C 34496.6 hPa SSW 6 km/h 6.8 km/h 51 % 0 mm
20:06 -8.9 °C -14.6 °C 34496.6 hPa ESE 9.3 km/h 9.3 km/h 51 % 0 mm
20:10 -8.8 °C -14.5 °C 34496.6 hPa West 6 km/h 6 km/h 51 % 0 mm
20:15 -8.8 °C -14.5 °C 34496.6 hPa WNW 9 km/h 9 km/h 51 % 0 mm
20:18 -8.8 °C -14.5 °C 34496.6 hPa WSW 6 km/h 6 km/h 51 % 0 mm
20:19 -8.9 °C -14.6 °C 34496.6 hPa SW 6 km/h 6 km/h 51 % 0 mm
20:23 -9 °C -14.6 °C 34496.6 hPa SE 5.1 km/h   51 % 0 mm
20:24 -9.1 °C -14.7 °C 34496.6 hPa SE 6 km/h 6 km/h 51 % 0 mm
20:29 -8.9 °C -14.6 °C 34496.6 hPa SW 6.3 km/h 6.3 km/h 51 % 0 mm
20:33 -9 °C -14.6 °C 34496.6 hPa WSW 6 km/h   51 % 0 mm
20:35 -8.9 °C -14.6 °C 34496.6 hPa ESE 6 km/h 6 km/h 51 % 0 mm
20:40 -8.8 °C -14.5 °C 34462.7 hPa SW 3.7 km/h   51 % 0 mm
20:43 -9 °C -14.6 °C 34462.7 hPa SW 6 km/h 6 km/h 51 % 0 mm
20:44 -9.1 °C -14.7 °C 34462.7 hPa SW 6 km/h 6 km/h 51 % 0 mm
20:49 -9.2 °C -14.8 °C 34462.7 hPa WNW 6.3 km/h 6.3 km/h 51 % 0 mm
20:50 -9.2 °C -14.8 °C 34462.7 hPa WNW 6 km/h 6.3 km/h 51 % 0 mm
20:56 -9.2 °C -14.8 °C 34462.7 hPa West 6 km/h 6 km/h 51 % 0 mm
21:00 -11.3 °C -16.5 °C 34361.1 hPa SW 5.1 km/h 7.7 km/h 53 % 0 mm
21:02 -9.3 °C -14.7 °C 34462.7 hPa WNW 6 km/h 6 km/h 52 % 0 mm
21:06 -9.3 °C -14.8 °C 34462.7 hPa NNW 9 km/h 9 km/h 52 % 0 mm
21:10 -11.3 °C -16.5 °C 34361.1 hPa SW 2.6 km/h 7.7 km/h 53 % 0 mm
21:11 -9.3 °C -14.8 °C 34462.7 hPa WNW 6 km/h 6 km/h 52 % 0 mm
21:16 -9.3 °C -14.7 °C 34462.7 hPa West 9 km/h 9 km/h 52 % 0 mm
21:17 -9.3 °C -14.7 °C 34462.7 hPa WSW 9 km/h 9 km/h 52 % 0 mm
21:20 -9.3 °C -14.8 °C 34462.7 hPa NW 6 km/h 6 km/h 52 % 0 mm
21:25 -9.4 °C -14.8 °C 34462.7 hPa WNW 6.3 km/h 6.3 km/h 52 % 0 mm
21:27 -9.4 °C -14.8 °C 34462.7 hPa WNW 7.6 km/h 7.6 km/h 52 % 0 mm
21:32 -9.3 °C -14.8 °C 34462.7 hPa WNW 6 km/h 6 km/h 52 % 0 mm
21:33 -9.3 °C -14.8 °C 34462.7 hPa NW 6 km/h 6 km/h 52 % 0 mm
21:38 -9.3 °C -14.8 °C 34462.7 hPa WNW 9 km/h 9 km/h 52 % 0 mm
21:40 -11.6 °C -16.6 °C 34327.3 hPa Calm   5.1 km/h 54 % 0 mm
21:43 -9.3 °C -14.7 °C 34462.7 hPa West 6.3 km/h 6.3 km/h 52 % 0 mm
21:47 -9.2 °C -14.7 °C 34462.7 hPa WNW 9 km/h 9 km/h 52 % 0 mm
21:50 -11.6 °C -16.6 °C 34361.1 hPa WSW 2.6 km/h 5.1 km/h 54 % 0 mm
21:52 -9.3 °C -14.6 °C 34462.7 hPa WSW 14 km/h 14 km/h 53 % 0 mm
21:54 -9.3 °C -14.6 °C 34462.7 hPa WSW 8 km/h 8 km/h 53 % 0 mm
21:55 -9.2 °C -14.5 °C 34462.7 hPa NW 15 km/h 15 km/h 53 % 0 mm
21:59 -9.3 °C -14.6 °C 34462.7 hPa West 6 km/h 6 km/h 53 % 0 mm
22:00 -11.4 °C -16.4 °C 34361.1 hPa WSW 7.7 km/h 10.3 km/h 54 % 0 mm
22:06 -9.2 °C -14.7 °C 34496.6 hPa WNW 6.3 km/h 6.3 km/h 52 % 0 mm
22:09 -9.2 °C -14.7 °C 34496.6 hPa NW 9.8 km/h 9.8 km/h 52 % 0 mm
22:10 -11.3 °C -16.3 °C 34327.3 hPa WSW 5.1 km/h 10.3 km/h 54 % 0 mm
22:14 -9.2 °C -14.7 °C 34496.6 hPa West 14 km/h 14 km/h 52 % 0 mm
22:17 -9.2 °C -14.7 °C 34496.6 hPa WSW 11.9 km/h 11.9 km/h 52 % 0 mm
22:20 -11.2 °C -16.2 °C 34327.3 hPa WSW 7.7 km/h 15.6 km/h 54 % 0 mm
22:26 -9.3 °C -14.8 °C 34462.7 hPa WSW 9 km/h 9 km/h 52 % 0 mm
22:28 -9.3 °C -14.8 °C 34462.7 hPa WSW 11.9 km/h 11.9 km/h 52 % 0 mm
22:30 -9.4 °C -14.8 °C 34462.7 hPa NW 9 km/h 9 km/h 52 % 0 mm
22:32 -9.4 °C -14.8 °C 34462.7 hPa WNW 15 km/h 15 km/h 52 % 0 mm
22:33 -9.4 °C -14.8 °C 34462.7 hPa NW 15 km/h 15 km/h 52 % 0 mm
22:34 -9.4 °C -14.8 °C 34462.7 hPa West 11.9 km/h 11.9 km/h 52 % 0 mm
22:40 -11.6 °C -16.6 °C 34327.3 hPa SW 7.7 km/h 10.3 km/h 54 % 0 mm
22:43 -9.4 °C -14.9 °C 34462.7 hPa West 11.9 km/h 11.9 km/h 52 % 0 mm
22:44 -9.4 °C -15.1 °C 34462.7 hPa West 15.3 km/h 15.3 km/h 51 % 0 mm
22:45 -9.4 °C -15.1 °C 34462.7 hPa WSW 15 km/h 15 km/h 51 % 0 mm
22:46 -9.4 °C -15.1 °C 34462.7 hPa West 17.9 km/h 17.9 km/h 51 % 0 mm
22:47 -9.4 °C -15.1 °C 34462.7 hPa West 17.9 km/h 17.9 km/h 51 % 0 mm
22:48 -9.4 °C -15.1 °C 34462.7 hPa West 14.5 km/h 14.5 km/h 51 % 0 mm
22:49 -9.4 °C -15.1 °C 34462.7 hPa ENE 15 km/h 15 km/h 51 % 0 mm
22:50 -11.6 °C -16.4 °C 34293.4 hPa WSW 7.7 km/h 10.3 km/h 55 % 0 mm
22:54 -9.4 °C -15.1 °C 34462.7 hPa WNW 15 km/h 15 km/h 51 % 0 mm
22:55 -9.4 °C -15.1 °C 34462.7 hPa WSW 15 km/h 15 km/h 51 % 0 mm
23:00 -9.4 °C -15.1 °C 34462.7 hPa WSW 15 km/h 15 km/h 51 % 0 mm
23:05 -9.5 °C -15.1 °C 34462.7 hPa WNW 11.9 km/h 11.9 km/h 51 % 0 mm
23:06 -9.6 °C -15.1 °C 34462.7 hPa WSW 11.9 km/h 11.9 km/h 51 % 0 mm
23:11 -9.6 °C -15.1 °C 34462.7 hPa West 11.9 km/h 11.9 km/h 51 % 0 mm
23:16 -9.6 °C -15.2 °C 34462.7 hPa WSW 15 km/h 15 km/h 51 % 0 mm
23:20 -11.6 °C -16.4 °C 34327.3 hPa SW 7.7 km/h 7.7 km/h 55 % 0 mm
23:21 -9.6 °C -15.2 °C 34462.7 hPa WSW 15 km/h 15 km/h 51 % 0 mm
23:24 -9.7 °C -15.2 °C 34462.7 hPa West 11.9 km/h 11.9 km/h 51 % 0 mm
23:28 -9.7 °C -15.2 °C 34462.7 hPa West 26.9 km/h 26.9 km/h 51 % 0 mm
23:30 -11.6 °C -16.3 °C 34327.3 hPa SW 7.7 km/h 10.3 km/h 56 % 0 mm
23:34 -9.7 °C -15.2 °C 34462.7 hPa WNW 20.9 km/h 20.9 km/h 51 % 0 mm
23:35 -9.7 °C -15.3 °C 34462.7 hPa NNW 15 km/h 15 km/h 51 % 0 mm
23:40 -9.8 °C -15.3 °C 34462.7 hPa West 15 km/h 15 km/h 51 % 0 mm
23:41 -9.8 °C -15.3 °C 34462.7 hPa WSW 15 km/h 15 km/h 51 % 0 mm
23:46 -9.8 °C -15.3 °C 34462.7 hPa West 26.9 km/h 26.9 km/h 51 % 0 mm
23:50 -11.9 °C -16.6 °C 34293.4 hPa WSW 7.7 km/h 7.7 km/h 56 % 0 mm
23:51 -9.8 °C -15.3 °C 34462.7 hPa WSW 23.8 km/h 23.8 km/h 51 % 0 mm
23:55 -9.8 °C -15.3 °C 34462.7 hPa West 9 km/h 9 km/h 51 % 0 mm
Meteo Sesrovires
Elogis d' Weather Underground - 2 mb

Guio original per  Jim McMurry - jmcmurry@mwt.net Adaptat per a la plantilla per  Wim van der Kuil - Leuven-Template.eu

Trobareu la nostra informacio del temps tambe a:

Weather Underground

AWEKAS